sensor_id;sensor_type;location;lat;lon;timestamp;P1;durP1;ratioP1;P2;durP2;ratioP2
43325;SDS011;28920;59.862;30.636;2022-09-09T00:00:08;29.20;;;16.12;;
43325;SDS011;28920;59.862;30.636;2022-09-09T00:02:40;26.60;;;15.07;;
43325;SDS011;28920;59.862;30.636;2022-09-09T00:07:47;25.00;;;14.90;;
43325;SDS011;28920;59.862;30.636;2022-09-09T00:10:20;23.55;;;14.27;;
43325;SDS011;28920;59.862;30.636;2022-09-09T00:12:57;29.55;;;16.35;;
43325;SDS011;28920;59.862;30.636;2022-09-09T00:15:32;27.23;;;16.42;;
43325;SDS011;28920;59.862;30.636;2022-09-09T00:18:08;22.00;;;14.45;;
43325;SDS011;28920;59.862;30.636;2022-09-09T00:20:43;22.02;;;15.15;;
43325;SDS011;28920;59.862;30.636;2022-09-09T00:23:19;29.67;;;15.68;;
43325;SDS011;28920;59.862;30.636;2022-09-09T00:25:56;28.87;;;15.45;;
43325;SDS011;28920;59.862;30.636;2022-09-09T00:28:32;31.52;;;15.88;;
43325;SDS011;28920;59.862;30.636;2022-09-09T00:31:09;29.55;;;15.32;;
43325;SDS011;28920;59.862;30.636;2022-09-09T00:33:40;32.03;;;15.50;;
43325;SDS011;28920;59.862;30.636;2022-09-09T00:36:12;27.70;;;15.80;;
43325;SDS011;28920;59.862;30.636;2022-09-09T00:38:43;23.38;;;15.60;;
43325;SDS011;28920;59.862;30.636;2022-09-09T00:41:18;23.00;;;14.75;;
43325;SDS011;28920;59.862;30.636;2022-09-09T00:43:54;27.98;;;15.15;;
43325;SDS011;28920;59.862;30.636;2022-09-09T00:46:34;23.48;;;14.60;;
43325;SDS011;28920;59.862;30.636;2022-09-09T00:49:20;25.75;;;16.27;;
43325;SDS011;28920;59.862;30.636;2022-09-09T00:52:03;27.50;;;15.65;;
43325;SDS011;28920;59.862;30.636;2022-09-09T00:54:47;23.38;;;15.10;;
43325;SDS011;28920;59.862;30.636;2022-09-09T00:57:27;23.75;;;15.65;;
43325;SDS011;28920;59.862;30.636;2022-09-09T01:00:00;28.38;;;15.05;;
43325;SDS011;28920;59.862;30.636;2022-09-09T01:02:47;25.00;;;14.30;;
43325;SDS011;28920;59.862;30.636;2022-09-09T01:05:39;27.70;;;16.37;;
43325;SDS011;28920;59.862;30.636;2022-09-09T01:08:14;32.10;;;16.08;;
43325;SDS011;28920;59.862;30.636;2022-09-09T01:10:56;29.08;;;17.48;;
43325;SDS011;28920;59.862;30.636;2022-09-09T01:13:32;31.73;;;16.98;;
43325;SDS011;28920;59.862;30.636;2022-09-09T01:16:03;29.20;;;17.02;;
43325;SDS011;28920;59.862;30.636;2022-09-09T01:18:33;33.47;;;19.50;;
43325;SDS011;28920;59.862;30.636;2022-09-09T01:21:07;29.67;;;17.33;;
43325;SDS011;28920;59.862;30.636;2022-09-09T01:23:48;35.50;;;17.85;;
43325;SDS011;28920;59.862;30.636;2022-09-09T01:26:35;28.92;;;15.82;;
43325;SDS011;28920;59.862;30.636;2022-09-09T01:31:36;25.98;;;14.85;;
43325;SDS011;28920;59.862;30.636;2022-09-09T01:34:10;26.17;;;15.73;;
43325;SDS011;28920;59.862;30.636;2022-09-09T01:36:41;29.40;;;14.65;;
43325;SDS011;28920;59.862;30.636;2022-09-09T01:39:12;27.10;;;15.52;;
43325;SDS011;28920;59.862;30.636;2022-09-09T01:41:43;28.60;;;15.50;;
43325;SDS011;28920;59.862;30.636;2022-09-09T01:44:12;30.40;;;17.58;;
43325;SDS011;28920;59.862;30.636;2022-09-09T01:46:40;36.25;;;17.90;;
43325;SDS011;28920;59.862;30.636;2022-09-09T01:49:10;31.75;;;16.48;;
43325;SDS011;28920;59.862;30.636;2022-09-09T01:51:38;26.67;;;17.17;;
43325;SDS011;28920;59.862;30.636;2022-09-09T01:54:09;26.87;;;15.45;;
43325;SDS011;28920;59.862;30.636;2022-09-09T01:56:40;27.77;;;15.90;;
43325;SDS011;28920;59.862;30.636;2022-09-09T01:59:18;26.37;;;15.43;;
43325;SDS011;28920;59.862;30.636;2022-09-09T02:02:08;24.92;;;15.13;;
43325;SDS011;28920;59.862;30.636;2022-09-09T02:04:40;29.60;;;17.00;;
43325;SDS011;28920;59.862;30.636;2022-09-09T02:07:14;25.57;;;14.43;;
43325;SDS011;28920;59.862;30.636;2022-09-09T02:09:57;25.80;;;15.25;;
43325;SDS011;28920;59.862;30.636;2022-09-09T02:12:30;22.52;;;13.05;;
43325;SDS011;28920;59.862;30.636;2022-09-09T02:15:00;23.70;;;13.45;;
43325;SDS011;28920;59.862;30.636;2022-09-09T02:17:35;22.13;;;13.60;;
43325;SDS011;28920;59.862;30.636;2022-09-09T02:20:09;21.42;;;14.05;;
43325;SDS011;28920;59.862;30.636;2022-09-09T02:22:42;25.17;;;14.30;;
43325;SDS011;28920;59.862;30.636;2022-09-09T02:25:14;23.67;;;14.23;;
43325;SDS011;28920;59.862;30.636;2022-09-09T02:27:48;24.70;;;15.25;;
43325;SDS011;28920;59.862;30.636;2022-09-09T02:30:18;25.27;;;14.48;;
43325;SDS011;28920;59.862;30.636;2022-09-09T02:32:48;21.95;;;14.45;;
43325;SDS011;28920;59.862;30.636;2022-09-09T02:35:24;23.25;;;14.10;;
43325;SDS011;28920;59.862;30.636;2022-09-09T02:37:54;37.53;;;21.55;;
43325;SDS011;28920;59.862;30.636;2022-09-09T02:40:26;39.95;;;19.73;;
43325;SDS011;28920;59.862;30.636;2022-09-09T02:42:56;36.05;;;20.37;;
43325;SDS011;28920;59.862;30.636;2022-09-09T02:45:29;47.22;;;22.62;;
43325;SDS011;28920;59.862;30.636;2022-09-09T02:48:03;34.60;;;19.60;;
43325;SDS011;28920;59.862;30.636;2022-09-09T02:50:39;37.28;;;21.52;;
43325;SDS011;28920;59.862;30.636;2022-09-09T02:53:14;37.75;;;21.55;;
43325;SDS011;28920;59.862;30.636;2022-09-09T02:55:46;37.75;;;20.30;;
43325;SDS011;28920;59.862;30.636;2022-09-09T02:58:18;32.13;;;18.42;;
43325;SDS011;28920;59.862;30.636;2022-09-09T03:00:51;37.80;;;21.23;;
43325;SDS011;28920;59.862;30.636;2022-09-09T03:03:20;33.00;;;18.60;;
43325;SDS011;28920;59.862;30.636;2022-09-09T03:05:48;32.60;;;19.20;;
43325;SDS011;28920;59.862;30.636;2022-09-09T03:08:17;29.63;;;15.73;;
43325;SDS011;28920;59.862;30.636;2022-09-09T03:10:45;30.80;;;18.12;;
43325;SDS011;28920;59.862;30.636;2022-09-09T03:13:13;23.90;;;14.20;;
43325;SDS011;28920;59.862;30.636;2022-09-09T03:15:43;24.73;;;14.73;;
43325;SDS011;28920;59.862;30.636;2022-09-09T03:18:11;26.37;;;14.35;;
43325;SDS011;28920;59.862;30.636;2022-09-09T03:20:40;24.70;;;12.55;;
43325;SDS011;28920;59.862;30.636;2022-09-09T03:23:10;21.10;;;12.00;;
43325;SDS011;28920;59.862;30.636;2022-09-09T03:25:39;22.10;;;11.80;;
43325;SDS011;28920;59.862;30.636;2022-09-09T03:28:14;27.77;;;13.50;;
43325;SDS011;28920;59.862;30.636;2022-09-09T03:30:44;21.10;;;11.63;;
43325;SDS011;28920;59.862;30.636;2022-09-09T03:33:12;20.92;;;12.20;;
43325;SDS011;28920;59.862;30.636;2022-09-09T03:35:44;19.75;;;12.00;;
43325;SDS011;28920;59.862;30.636;2022-09-09T03:38:15;24.23;;;12.55;;
43325;SDS011;28920;59.862;30.636;2022-09-09T03:40:48;24.08;;;11.48;;
43325;SDS011;28920;59.862;30.636;2022-09-09T03:43:17;18.55;;;12.18;;
43325;SDS011;28920;59.862;30.636;2022-09-09T03:45:47;23.12;;;12.55;;
43325;SDS011;28920;59.862;30.636;2022-09-09T03:48:15;27.52;;;11.98;;
43325;SDS011;28920;59.862;30.636;2022-09-09T03:50:44;23.35;;;11.63;;
43325;SDS011;28920;59.862;30.636;2022-09-09T03:53:13;22.02;;;13.27;;
43325;SDS011;28920;59.862;30.636;2022-09-09T03:55:43;21.05;;;12.05;;
43325;SDS011;28920;59.862;30.636;2022-09-09T03:58:12;22.00;;;13.80;;
43325;SDS011;28920;59.862;30.636;2022-09-09T04:00:40;27.27;;;12.98;;
43325;SDS011;28920;59.862;30.636;2022-09-09T04:03:12;27.60;;;11.65;;
43325;SDS011;28920;59.862;30.636;2022-09-09T04:05:41;21.33;;;12.25;;
43325;SDS011;28920;59.862;30.636;2022-09-09T04:08:09;21.73;;;12.23;;
43325;SDS011;28920;59.862;30.636;2022-09-09T04:10:38;21.17;;;11.63;;
43325;SDS011;28920;59.862;30.636;2022-09-09T04:13:05;19.65;;;11.85;;
43325;SDS011;28920;59.862;30.636;2022-09-09T04:15:33;23.98;;;14.05;;
43325;SDS011;28920;59.862;30.636;2022-09-09T04:18:02;23.17;;;13.50;;
43325;SDS011;28920;59.862;30.636;2022-09-09T04:20:31;23.17;;;12.52;;
43325;SDS011;28920;59.862;30.636;2022-09-09T04:22:59;25.48;;;12.18;;
43325;SDS011;28920;59.862;30.636;2022-09-09T04:25:28;26.37;;;14.23;;
43325;SDS011;28920;59.862;30.636;2022-09-09T04:27:56;27.08;;;14.25;;
43325;SDS011;28920;59.862;30.636;2022-09-09T04:30:26;20.02;;;13.13;;
43325;SDS011;28920;59.862;30.636;2022-09-09T04:32:55;25.67;;;13.82;;
43325;SDS011;28920;59.862;30.636;2022-09-09T04:35:23;23.30;;;13.80;;
43325;SDS011;28920;59.862;30.636;2022-09-09T04:37:55;27.40;;;14.23;;
43325;SDS011;28920;59.862;30.636;2022-09-09T04:40:23;27.40;;;14.65;;
43325;SDS011;28920;59.862;30.636;2022-09-09T04:42:51;28.75;;;14.38;;
43325;SDS011;28920;59.862;30.636;2022-09-09T04:45:19;26.33;;;14.82;;
43325;SDS011;28920;59.862;30.636;2022-09-09T04:47:48;24.83;;;13.90;;
43325;SDS011;28920;59.862;30.636;2022-09-09T04:50:16;25.90;;;14.15;;
43325;SDS011;28920;59.862;30.636;2022-09-09T04:52:46;25.00;;;14.40;;
43325;SDS011;28920;59.862;30.636;2022-09-09T04:55:17;26.50;;;16.73;;
43325;SDS011;28920;59.862;30.636;2022-09-09T04:57:45;49.85;;;30.58;;
43325;SDS011;28920;59.862;30.636;2022-09-09T05:00:14;53.70;;;33.53;;
43325;SDS011;28920;59.862;30.636;2022-09-09T05:02:43;66.82;;;43.75;;
43325;SDS011;28920;59.862;30.636;2022-09-09T05:05:12;45.15;;;26.17;;
43325;SDS011;28920;59.862;30.636;2022-09-09T05:07:40;32.47;;;20.08;;
43325;SDS011;28920;59.862;30.636;2022-09-09T05:10:09;29.10;;;16.85;;
43325;SDS011;28920;59.862;30.636;2022-09-09T05:12:39;29.85;;;18.20;;
43325;SDS011;28920;59.862;30.636;2022-09-09T05:15:07;25.77;;;14.85;;
43325;SDS011;28920;59.862;30.636;2022-09-09T05:17:37;25.40;;;17.17;;
43325;SDS011;28920;59.862;30.636;2022-09-09T05:20:05;25.65;;;17.00;;
43325;SDS011;28920;59.862;30.636;2022-09-09T05:22:33;20.55;;;13.68;;
43325;SDS011;28920;59.862;30.636;2022-09-09T05:25:02;24.90;;;13.13;;
43325;SDS011;28920;59.862;30.636;2022-09-09T05:27:30;23.08;;;15.00;;
43325;SDS011;28920;59.862;30.636;2022-09-09T05:30:02;51.42;;;28.05;;
43325;SDS011;28920;59.862;30.636;2022-09-09T05:32:33;40.65;;;21.45;;
43325;SDS011;28920;59.862;30.636;2022-09-09T05:35:01;32.90;;;16.55;;
43325;SDS011;28920;59.862;30.636;2022-09-09T05:37:30;28.17;;;15.23;;
43325;SDS011;28920;59.862;30.636;2022-09-09T05:39:59;56.15;;;29.63;;
43325;SDS011;28920;59.862;30.636;2022-09-09T05:42:31;52.45;;;27.20;;
43325;SDS011;28920;59.862;30.636;2022-09-09T05:45:01;35.50;;;14.38;;
43325;SDS011;28920;59.862;30.636;2022-09-09T05:47:30;29.98;;;14.27;;
43325;SDS011;28920;59.862;30.636;2022-09-09T05:49:59;26.12;;;12.82;;
43325;SDS011;28920;59.862;30.636;2022-09-09T05:52:28;33.60;;;16.80;;
43325;SDS011;28920;59.862;30.636;2022-09-09T05:54:57;30.02;;;16.95;;
43325;SDS011;28920;59.862;30.636;2022-09-09T05:57:25;31.00;;;12.63;;
43325;SDS011;28920;59.862;30.636;2022-09-09T05:59:54;24.85;;;10.15;;
43325;SDS011;28920;59.862;30.636;2022-09-09T06:02:24;18.35;;;8.05;;
43325;SDS011;28920;59.862;30.636;2022-09-09T06:04:52;16.85;;;7.75;;
43325;SDS011;28920;59.862;30.636;2022-09-09T06:09:51;19.25;;;7.47;;
43325;SDS011;28920;59.862;30.636;2022-09-09T06:12:19;15.05;;;6.87;;
43325;SDS011;28920;59.862;30.636;2022-09-09T06:14:48;15.45;;;6.20;;
43325;SDS011;28920;59.862;30.636;2022-09-09T06:17:17;20.65;;;6.10;;
43325;SDS011;28920;59.862;30.636;2022-09-09T06:19:46;10.38;;;5.68;;
43325;SDS011;28920;59.862;30.636;2022-09-09T06:22:14;16.90;;;5.75;;
43325;SDS011;28920;59.862;30.636;2022-09-09T06:24:43;20.45;;;6.40;;
43325;SDS011;28920;59.862;30.636;2022-09-09T06:27:11;14.25;;;6.07;;
43325;SDS011;28920;59.862;30.636;2022-09-09T06:29:39;13.68;;;5.40;;
43325;SDS011;28920;59.862;30.636;2022-09-09T06:32:07;15.00;;;5.70;;
43325;SDS011;28920;59.862;30.636;2022-09-09T06:34:35;19.52;;;5.95;;
43325;SDS011;28920;59.862;30.636;2022-09-09T06:37:05;11.38;;;4.35;;
43325;SDS011;28920;59.862;30.636;2022-09-09T06:42:03;8.23;;;4.60;;
43325;SDS011;28920;59.862;30.636;2022-09-09T06:44:34;11.70;;;5.12;;
43325;SDS011;28920;59.862;30.636;2022-09-09T06:47:02;13.57;;;4.93;;
43325;SDS011;28920;59.862;30.636;2022-09-09T06:49:31;11.80;;;4.87;;
43325;SDS011;28920;59.862;30.636;2022-09-09T06:51:59;18.60;;;5.65;;
43325;SDS011;28920;59.862;30.636;2022-09-09T06:54:30;15.93;;;5.50;;
43325;SDS011;28920;59.862;30.636;2022-09-09T06:56:58;17.73;;;5.97;;
43325;SDS011;28920;59.862;30.636;2022-09-09T06:59:26;11.75;;;5.15;;
43325;SDS011;28920;59.862;30.636;2022-09-09T07:01:54;10.70;;;5.12;;
43325;SDS011;28920;59.862;30.636;2022-09-09T07:04:23;9.13;;;5.28;;
43325;SDS011;28920;59.862;30.636;2022-09-09T07:06:51;11.77;;;5.43;;
43325;SDS011;28920;59.862;30.636;2022-09-09T07:09:20;14.85;;;6.65;;
43325;SDS011;28920;59.862;30.636;2022-09-09T07:11:51;10.00;;;5.40;;
43325;SDS011;28920;59.862;30.636;2022-09-09T07:14:20;8.02;;;5.55;;
43325;SDS011;28920;59.862;30.636;2022-09-09T07:16:49;9.80;;;4.90;;
43325;SDS011;28920;59.862;30.636;2022-09-09T07:19:18;76.43;;;42.75;;
43325;SDS011;28920;59.862;30.636;2022-09-09T07:21:46;17.67;;;9.20;;
43325;SDS011;28920;59.862;30.636;2022-09-09T07:24:15;10.25;;;5.00;;
43325;SDS011;28920;59.862;30.636;2022-09-09T07:26:43;8.20;;;4.28;;
43325;SDS011;28920;59.862;30.636;2022-09-09T07:29:14;29.08;;;18.60;;
43325;SDS011;28920;59.862;30.636;2022-09-09T07:31:41;22.98;;;12.65;;
43325;SDS011;28920;59.862;30.636;2022-09-09T07:34:10;11.15;;;6.37;;
43325;SDS011;28920;59.862;30.636;2022-09-09T07:36:39;7.28;;;3.90;;
43325;SDS011;28920;59.862;30.636;2022-09-09T07:39:09;8.90;;;3.40;;
43325;SDS011;28920;59.862;30.636;2022-09-09T07:41:41;5.57;;;3.72;;
43325;SDS011;28920;59.862;30.636;2022-09-09T07:44:11;6.68;;;3.03;;
43325;SDS011;28920;59.862;30.636;2022-09-09T07:46:42;6.45;;;3.95;;
43325;SDS011;28920;59.862;30.636;2022-09-09T07:49:14;9.15;;;3.75;;
43325;SDS011;28920;59.862;30.636;2022-09-09T07:51:43;5.50;;;3.08;;
43325;SDS011;28920;59.862;30.636;2022-09-09T07:54:13;5.75;;;3.22;;
43325;SDS011;28920;59.862;30.636;2022-09-09T07:56:47;4.12;;;2.53;;
43325;SDS011;28920;59.862;30.636;2022-09-09T07:59:16;3.75;;;2.67;;
43325;SDS011;28920;59.862;30.636;2022-09-09T08:01:47;5.95;;;2.60;;
43325;SDS011;28920;59.862;30.636;2022-09-09T08:04:19;3.78;;;3.10;;
43325;SDS011;28920;59.862;30.636;2022-09-09T08:06:50;4.87;;;3.80;;
43325;SDS011;28920;59.862;30.636;2022-09-09T08:09:20;4.28;;;2.65;;
43325;SDS011;28920;59.862;30.636;2022-09-09T08:11:51;2.87;;;2.10;;
43325;SDS011;28920;59.862;30.636;2022-09-09T08:14:19;4.68;;;2.97;;
43325;SDS011;28920;59.862;30.636;2022-09-09T08:16:50;7.57;;;4.70;;
43325;SDS011;28920;59.862;30.636;2022-09-09T08:19:20;4.10;;;2.55;;
43325;SDS011;28920;59.862;30.636;2022-09-09T08:21:50;4.15;;;2.72;;
43325;SDS011;28920;59.862;30.636;2022-09-09T08:24:18;4.10;;;2.40;;
43325;SDS011;28920;59.862;30.636;2022-09-09T08:26:47;4.80;;;2.40;;
43325;SDS011;28920;59.862;30.636;2022-09-09T08:29:17;3.65;;;2.55;;
43325;SDS011;28920;59.862;30.636;2022-09-09T08:31:46;6.70;;;2.20;;
43325;SDS011;28920;59.862;30.636;2022-09-09T08:34:17;11.07;;;4.10;;
43325;SDS011;28920;59.862;30.636;2022-09-09T08:36:48;4.80;;;4.12;;
43325;SDS011;28920;59.862;30.636;2022-09-09T08:39:18;6.85;;;2.83;;
43325;SDS011;28920;59.862;30.636;2022-09-09T08:41:57;4.10;;;2.42;;
43325;SDS011;28920;59.862;30.636;2022-09-09T08:44:50;5.60;;;2.87;;
43325;SDS011;28920;59.862;30.636;2022-09-09T08:47:33;16.35;;;3.33;;
43325;SDS011;28920;59.862;30.636;2022-09-09T08:50:15;6.28;;;2.40;;
43325;SDS011;28920;59.862;30.636;2022-09-09T08:52:53;6.00;;;3.03;;
43325;SDS011;28920;59.862;30.636;2022-09-09T08:55:29;6.37;;;3.65;;
43325;SDS011;28920;59.862;30.636;2022-09-09T08:58:09;6.85;;;4.20;;
43325;SDS011;28920;59.862;30.636;2022-09-09T09:00:43;5.62;;;2.92;;
43325;SDS011;28920;59.862;30.636;2022-09-09T09:03:30;5.55;;;3.60;;
43325;SDS011;28920;59.862;30.636;2022-09-09T09:06:13;13.65;;;7.72;;
43325;SDS011;28920;59.862;30.636;2022-09-09T09:08:56;6.03;;;3.67;;
43325;SDS011;28920;59.862;30.636;2022-09-09T09:11:34;6.28;;;2.80;;
43325;SDS011;28920;59.862;30.636;2022-09-09T09:14:07;3.80;;;2.47;;
43325;SDS011;28920;59.862;30.636;2022-09-09T09:16:40;6.43;;;3.05;;
43325;SDS011;28920;59.862;30.636;2022-09-09T09:19:14;5.93;;;3.33;;
43325;SDS011;28920;59.862;30.636;2022-09-09T09:21:48;5.45;;;2.65;;
43325;SDS011;28920;59.862;30.636;2022-09-09T09:24:20;8.50;;;4.10;;
43325;SDS011;28920;59.862;30.636;2022-09-09T09:26:53;7.85;;;3.60;;
43325;SDS011;28920;59.862;30.636;2022-09-09T09:29:23;5.75;;;2.90;;
43325;SDS011;28920;59.862;30.636;2022-09-09T09:31:54;4.72;;;2.58;;
43325;SDS011;28920;59.862;30.636;2022-09-09T09:34:27;5.65;;;3.22;;
43325;SDS011;28920;59.862;30.636;2022-09-09T09:36:57;5.72;;;2.58;;
43325;SDS011;28920;59.862;30.636;2022-09-09T09:39:28;4.72;;;2.55;;
43325;SDS011;28920;59.862;30.636;2022-09-09T09:42:07;4.85;;;2.45;;
43325;SDS011;28920;59.862;30.636;2022-09-09T09:44:40;4.85;;;2.10;;
43325;SDS011;28920;59.862;30.636;2022-09-09T09:47:11;5.47;;;2.65;;
43325;SDS011;28920;59.862;30.636;2022-09-09T09:49:50;6.20;;;2.30;;
43325;SDS011;28920;59.862;30.636;2022-09-09T09:52:22;6.70;;;2.55;;
43325;SDS011;28920;59.862;30.636;2022-09-09T09:54:51;7.47;;;5.20;;
43325;SDS011;28920;59.862;30.636;2022-09-09T09:57:22;15.35;;;8.18;;
43325;SDS011;28920;59.862;30.636;2022-09-09T10:00:03;12.02;;;8.32;;
43325;SDS011;28920;59.862;30.636;2022-09-09T10:02:41;7.85;;;4.32;;
43325;SDS011;28920;59.862;30.636;2022-09-09T10:05:13;5.10;;;2.87;;
43325;SDS011;28920;59.862;30.636;2022-09-09T10:07:45;4.43;;;2.58;;
43325;SDS011;28920;59.862;30.636;2022-09-09T10:10:15;8.10;;;3.30;;
43325;SDS011;28920;59.862;30.636;2022-09-09T10:12:55;4.35;;;2.33;;
43325;SDS011;28920;59.862;30.636;2022-09-09T10:15:36;4.20;;;2.35;;
43325;SDS011;28920;59.862;30.636;2022-09-09T10:18:24;4.78;;;2.58;;
43325;SDS011;28920;59.862;30.636;2022-09-09T10:21:06;4.15;;;2.08;;
43325;SDS011;28920;59.862;30.636;2022-09-09T10:23:47;5.60;;;2.90;;
43325;SDS011;28920;59.862;30.636;2022-09-09T10:26:32;6.43;;;2.50;;
43325;SDS011;28920;59.862;30.636;2022-09-09T10:29:11;3.92;;;2.50;;
43325;SDS011;28920;59.862;30.636;2022-09-09T10:31:55;11.70;;;2.35;;
43325;SDS011;28920;59.862;30.636;2022-09-09T10:34:46;23.95;;;15.07;;
43325;SDS011;28920;59.862;30.636;2022-09-09T10:37:30;4.95;;;2.37;;
43325;SDS011;28920;59.862;30.636;2022-09-09T10:40:18;7.10;;;2.20;;
43325;SDS011;28920;59.862;30.636;2022-09-09T10:42:59;5.80;;;3.10;;
43325;SDS011;28920;59.862;30.636;2022-09-09T10:45:35;6.18;;;2.95;;
43325;SDS011;28920;59.862;30.636;2022-09-09T10:48:30;5.12;;;2.05;;
43325;SDS011;28920;59.862;30.636;2022-09-09T10:51:10;8.35;;;2.47;;
43325;SDS011;28920;59.862;30.636;2022-09-09T10:53:49;31.20;;;28.05;;
43325;SDS011;28920;59.862;30.636;2022-09-09T10:56:30;5.72;;;3.83;;
43325;SDS011;28920;59.862;30.636;2022-09-09T10:59:01;6.53;;;2.15;;
43325;SDS011;28920;59.862;30.636;2022-09-09T11:01:34;4.78;;;2.10;;
43325;SDS011;28920;59.862;30.636;2022-09-09T11:04:09;6.80;;;2.37;;
43325;SDS011;28920;59.862;30.636;2022-09-09T11:06:43;13.90;;;5.43;;
43325;SDS011;28920;59.862;30.636;2022-09-09T11:09:19;30.92;;;14.23;;
43325;SDS011;28920;59.862;30.636;2022-09-09T11:11:53;45.33;;;18.83;;
43325;SDS011;28920;59.862;30.636;2022-09-09T11:14:28;14.85;;;5.80;;
43325;SDS011;28920;59.862;30.636;2022-09-09T11:17:04;9.30;;;3.53;;
43325;SDS011;28920;59.862;30.636;2022-09-09T11:19:38;8.80;;;4.32;;
43325;SDS011;28920;59.862;30.636;2022-09-09T11:22:14;8.77;;;3.60;;
43325;SDS011;28920;59.862;30.636;2022-09-09T11:24:45;10.73;;;4.85;;
43325;SDS011;28920;59.862;30.636;2022-09-09T11:27:19;8.50;;;3.53;;
43325;SDS011;28920;59.862;30.636;2022-09-09T11:29:57;9.70;;;3.83;;
43325;SDS011;28920;59.862;30.636;2022-09-09T11:33:02;6.07;;;3.33;;
43325;SDS011;28920;59.862;30.636;2022-09-09T11:35:46;3.55;;;2.15;;
43325;SDS011;28920;59.862;30.636;2022-09-09T11:38:29;4.53;;;3.03;;
43325;SDS011;28920;59.862;30.636;2022-09-09T11:41:05;9.07;;;3.28;;
43325;SDS011;28920;59.862;30.636;2022-09-09T11:46:08;5.75;;;2.50;;
43325;SDS011;28920;59.862;30.636;2022-09-09T11:48:38;8.82;;;3.83;;
43325;SDS011;28920;59.862;30.636;2022-09-09T11:51:10;4.68;;;1.98;;
43325;SDS011;28920;59.862;30.636;2022-09-09T11:53:49;9.52;;;5.50;;
43325;SDS011;28920;59.862;30.636;2022-09-09T11:56:25;9.32;;;3.85;;
43325;SDS011;28920;59.862;30.636;2022-09-09T11:58:59;10.45;;;5.78;;
43325;SDS011;28920;59.862;30.636;2022-09-09T12:01:33;7.05;;;2.53;;
43325;SDS011;28920;59.862;30.636;2022-09-09T12:07:03;4.20;;;2.40;;
43325;SDS011;28920;59.862;30.636;2022-09-09T12:12:28;6.05;;;2.92;;
43325;SDS011;28920;59.862;30.636;2022-09-09T12:15:00;4.10;;;2.20;;
43325;SDS011;28920;59.862;30.636;2022-09-09T12:17:47;7.78;;;3.62;;
43325;SDS011;28920;59.862;30.636;2022-09-09T12:20:18;4.95;;;3.10;;
43325;SDS011;28920;59.862;30.636;2022-09-09T12:22:54;4.87;;;2.15;;
43325;SDS011;28920;59.862;30.636;2022-09-09T12:25:54;6.22;;;2.47;;
43325;SDS011;28920;59.862;30.636;2022-09-09T12:28:43;6.18;;;2.50;;
43325;SDS011;28920;59.862;30.636;2022-09-09T12:31:21;5.30;;;2.22;;
43325;SDS011;28920;59.862;30.636;2022-09-09T12:33:54;4.57;;;1.67;;
43325;SDS011;28920;59.862;30.636;2022-09-09T12:36:23;9.55;;;4.97;;
43325;SDS011;28920;59.862;30.636;2022-09-09T12:38:55;5.60;;;1.95;;
43325;SDS011;28920;59.862;30.636;2022-09-09T12:41:27;5.95;;;3.62;;
43325;SDS011;28920;59.862;30.636;2022-09-09T12:44:03;4.00;;;2.45;;
43325;SDS011;28920;59.862;30.636;2022-09-09T12:46:34;7.22;;;3.65;;
43325;SDS011;28920;59.862;30.636;2022-09-09T12:49:05;4.32;;;2.12;;
43325;SDS011;28920;59.862;30.636;2022-09-09T12:51:49;4.35;;;2.53;;
43325;SDS011;28920;59.862;30.636;2022-09-09T12:54:18;5.22;;;2.20;;
43325;SDS011;28920;59.862;30.636;2022-09-09T12:56:47;6.65;;;2.80;;
43325;SDS011;28920;59.862;30.636;2022-09-09T12:59:21;4.30;;;2.92;;
43325;SDS011;28920;59.862;30.636;2022-09-09T13:01:58;6.75;;;2.83;;
43325;SDS011;28920;59.862;30.636;2022-09-09T13:04:26;6.70;;;2.47;;
43325;SDS011;28920;59.862;30.636;2022-09-09T13:07:04;6.05;;;2.53;;
43325;SDS011;28920;59.862;30.636;2022-09-09T13:09:36;5.07;;;3.25;;
43325;SDS011;28920;59.862;30.636;2022-09-09T13:12:04;8.45;;;3.08;;
43325;SDS011;28920;59.862;30.636;2022-09-09T13:14:37;3.35;;;2.53;;
43325;SDS011;28920;59.862;30.636;2022-09-09T13:17:06;7.47;;;2.92;;
43325;SDS011;28920;59.862;30.636;2022-09-09T13:19:44;4.55;;;2.85;;
43325;SDS011;28920;59.862;30.636;2022-09-09T13:22:13;4.85;;;2.87;;
43325;SDS011;28920;59.862;30.636;2022-09-09T13:24:45;22.90;;;9.10;;
43325;SDS011;28920;59.862;30.636;2022-09-09T13:27:24;97.05;;;49.60;;
43325;SDS011;28920;59.862;30.636;2022-09-09T13:29:56;15.95;;;10.27;;
43325;SDS011;28920;59.862;30.636;2022-09-09T13:32:26;8.57;;;4.22;;
43325;SDS011;28920;59.862;30.636;2022-09-09T13:34:54;14.33;;;8.03;;
43325;SDS011;28920;59.862;30.636;2022-09-09T13:37:26;11.73;;;5.03;;
43325;SDS011;28920;59.862;30.636;2022-09-09T13:40:00;26.27;;;12.88;;
43325;SDS011;28920;59.862;30.636;2022-09-09T13:42:29;23.00;;;14.30;;
43325;SDS011;28920;59.862;30.636;2022-09-09T13:45:01;15.48;;;8.10;;
43325;SDS011;28920;59.862;30.636;2022-09-09T13:47:32;28.00;;;13.27;;
43325;SDS011;28920;59.862;30.636;2022-09-09T13:50:09;7.40;;;3.47;;
43325;SDS011;28920;59.862;30.636;2022-09-09T13:52:46;11.30;;;6.07;;
43325;SDS011;28920;59.862;30.636;2022-09-09T13:55:15;4.57;;;3.05;;
43325;SDS011;28920;59.862;30.636;2022-09-09T13:57:50;9.50;;;4.93;;
43325;SDS011;28920;59.862;30.636;2022-09-09T14:00:18;20.75;;;10.07;;
43325;SDS011;28920;59.862;30.636;2022-09-09T14:02:48;19.85;;;9.73;;
43325;SDS011;28920;59.862;30.636;2022-09-09T14:05:17;17.48;;;7.72;;
43325;SDS011;28920;59.862;30.636;2022-09-09T14:07:45;24.52;;;12.80;;
43325;SDS011;28920;59.862;30.636;2022-09-09T14:10:14;28.98;;;14.87;;
43325;SDS011;28920;59.862;30.636;2022-09-09T14:12:42;21.08;;;12.02;;
43325;SDS011;28920;59.862;30.636;2022-09-09T14:15:11;22.77;;;14.35;;
43325;SDS011;28920;59.862;30.636;2022-09-09T14:17:40;11.45;;;6.93;;
43325;SDS011;28920;59.862;30.636;2022-09-09T14:20:10;17.35;;;6.85;;
43325;SDS011;28920;59.862;30.636;2022-09-09T14:22:41;14.75;;;8.43;;
43325;SDS011;28920;59.862;30.636;2022-09-09T14:25:10;22.80;;;13.88;;
43325;SDS011;28920;59.862;30.636;2022-09-09T14:27:39;6.97;;;5.10;;
43325;SDS011;28920;59.862;30.636;2022-09-09T14:30:08;13.40;;;6.15;;
43325;SDS011;28920;59.862;30.636;2022-09-09T14:32:37;17.48;;;9.38;;
43325;SDS011;28920;59.862;30.636;2022-09-09T14:35:05;10.95;;;5.72;;
43325;SDS011;28920;59.862;30.636;2022-09-09T14:37:35;22.87;;;12.73;;
43325;SDS011;28920;59.862;30.636;2022-09-09T14:40:05;11.32;;;6.90;;
43325;SDS011;28920;59.862;30.636;2022-09-09T14:42:34;15.27;;;8.18;;
43325;SDS011;28920;59.862;30.636;2022-09-09T14:45:02;22.73;;;13.90;;
43325;SDS011;28920;59.862;30.636;2022-09-09T14:47:30;19.98;;;8.93;;
43325;SDS011;28920;59.862;30.636;2022-09-09T14:49:58;8.80;;;5.65;;
43325;SDS011;28920;59.862;30.636;2022-09-09T14:52:27;7.72;;;4.70;;
43325;SDS011;28920;59.862;30.636;2022-09-09T14:54:56;31.15;;;16.83;;
43325;SDS011;28920;59.862;30.636;2022-09-09T14:57:24;16.42;;;8.75;;
43325;SDS011;28920;59.862;30.636;2022-09-09T14:59:52;25.15;;;11.27;;
43325;SDS011;28920;59.862;30.636;2022-09-09T15:02:20;41.78;;;19.00;;
43325;SDS011;28920;59.862;30.636;2022-09-09T15:04:48;29.23;;;15.15;;
43325;SDS011;28920;59.862;30.636;2022-09-09T15:07:18;18.42;;;10.10;;
43325;SDS011;28920;59.862;30.636;2022-09-09T15:09:46;23.67;;;11.07;;